createdAt,value
2017-06-12T00:00:51.588Z,18.7
2017-06-12T00:01:59.074Z,18.7
2017-06-12T00:03:06.561Z,18.7
2017-06-12T00:04:14.347Z,18.7
2017-06-12T00:05:21.831Z,18.6
2017-06-12T00:06:29.319Z,18.6
2017-06-12T00:07:36.811Z,18.6
2017-06-12T00:08:43.967Z,18.6
2017-06-12T00:09:51.428Z,18.5
2017-06-12T00:10:58.925Z,18.5
2017-06-12T00:12:06.411Z,18.5
2017-06-12T00:13:13.563Z,18.4
2017-06-12T00:14:21.054Z,18.4
2017-06-12T00:15:28.843Z,18.4
2017-06-12T00:16:36.336Z,18.4
2017-06-12T00:17:43.821Z,18.3
2017-06-12T00:18:51.311Z,18.3
2017-06-12T00:19:58.468Z,18.2
2017-06-12T00:21:06.261Z,18.2
2017-06-12T00:22:13.748Z,18.2
2017-06-12T00:23:21.238Z,18.2
2017-06-12T00:24:28.725Z,18.2
2017-06-12T00:25:36.217Z,18.1
2017-06-12T00:26:44.007Z,18
2017-06-12T00:27:51.494Z,18
2017-06-12T00:28:58.990Z,17.9
2017-06-12T00:30:06.477Z,17.9
2017-06-12T00:31:13.966Z,17.9
2017-06-12T00:32:21.759Z,17.9
2017-06-12T00:33:29.250Z,17.9
2017-06-12T00:34:36.734Z,17.9
2017-06-12T00:35:43.891Z,17.8
2017-06-12T00:36:51.390Z,17.9
2017-06-12T00:37:58.847Z,17.8
2017-06-12T00:39:06.000Z,17.8
2017-06-12T00:40:13.488Z,17.8
2017-06-12T00:41:20.979Z,17.8
2017-06-12T00:42:28.465Z,17.8
2017-06-12T00:43:36.254Z,17.8
2017-06-12T00:44:43.749Z,17.8
2017-06-12T00:45:51.238Z,17.7
2017-06-12T00:46:58.729Z,17.7
2017-06-12T00:48:06.236Z,17.7
2017-06-12T00:49:14.034Z,17.7
2017-06-12T00:50:21.526Z,17.7
2017-06-12T00:51:29.017Z,17.7
2017-06-12T00:52:36.178Z,17.8
2017-06-12T00:53:43.666Z,17.7
2017-06-12T00:54:51.452Z,17.8
2017-06-12T00:55:58.941Z,17.8
2017-06-12T00:57:06.430Z,17.8
2017-06-12T00:58:13.927Z,17.7
2017-06-12T00:59:21.415Z,17.7
2017-06-12T01:00:29.196Z,17.7
2017-06-12T01:01:36.680Z,17.7
2017-06-12T01:02:43.843Z,17.7
2017-06-12T01:03:51.329Z,17.6
2017-06-12T01:04:58.812Z,17.6
2017-06-12T01:06:06.606Z,17.6
2017-06-12T01:07:14.099Z,17.6
2017-06-12T01:08:21.594Z,17.6
2017-06-12T01:09:29.076Z,17.6
2017-06-12T01:10:36.565Z,17.5
2017-06-12T01:11:44.356Z,17.6
2017-06-12T01:12:51.843Z,17.5
2017-06-12T01:13:59.337Z,17.5
2017-06-12T01:15:06.829Z,17.5
2017-06-12T01:16:14.316Z,17.5
2017-06-12T01:17:22.108Z,17.5
2017-06-12T01:18:29.598Z,17.5
2017-06-12T01:19:36.756Z,17.5
2017-06-12T01:20:44.244Z,17.5
2017-06-12T01:21:51.733Z,17.5
2017-06-12T01:22:59.522Z,17.4
2017-06-12T01:24:07.032Z,17.4
2017-06-12T01:25:14.519Z,17.4
2017-06-12T01:26:21.682Z,17.4
2017-06-12T01:27:29.167Z,17.4
2017-06-12T01:28:36.965Z,17.4
2017-06-12T01:29:44.447Z,17.4
2017-06-12T01:30:51.939Z,17.4
2017-06-12T01:31:59.425Z,17.4
2017-06-12T01:33:06.578Z,17.5
2017-06-12T01:34:14.361Z,17.4
2017-06-12T01:35:21.850Z,17.4
2017-06-12T01:36:29.337Z,17.4
2017-06-12T01:37:36.495Z,17.4
2017-06-12T01:38:43.979Z,17.3
2017-06-12T01:39:51.766Z,17.4
2017-06-12T01:40:59.254Z,17.3
2017-06-12T01:42:06.738Z,17.3
2017-06-12T01:43:14.222Z,17.3
2017-06-12T01:44:21.704Z,17.3
2017-06-12T01:45:29.497Z,17.3
2017-06-12T01:46:36.981Z,17.3
2017-06-12T01:47:44.474Z,17.2
2017-06-12T01:48:51.960Z,17.3
2017-06-12T01:49:59.457Z,17.3
2017-06-12T01:51:07.245Z,17.3
2017-06-12T01:52:14.729Z,17.2
2017-06-12T01:53:22.218Z,17.2
2017-06-12T01:54:29.702Z,17.2
2017-06-12T01:55:37.192Z,17.2
2017-06-12T01:56:44.975Z,17.1
2017-06-12T01:57:52.126Z,17.2
2017-06-12T01:58:59.310Z,17.2
2017-06-12T02:00:06.799Z,17.1
2017-06-12T02:01:14.293Z,17.1
2017-06-12T02:02:22.080Z,17.1
2017-06-12T02:03:29.567Z,17.1
2017-06-12T02:04:37.050Z,17.1
2017-06-12T02:05:44.537Z,17.1
2017-06-12T02:06:52.025Z,17
2017-06-12T02:07:59.813Z,17
2017-06-12T02:09:06.960Z,17
2017-06-12T02:10:14.447Z,17
2017-06-12T02:11:21.605Z,17
2017-06-12T02:12:29.091Z,17
2017-06-12T02:13:36.874Z,17
2017-06-12T02:14:44.357Z,17
2017-06-12T02:15:51.839Z,17.1
2017-06-12T02:16:59.333Z,17.2
2017-06-12T02:18:06.823Z,17.1
2017-06-12T02:19:14.841Z,17.1
2017-06-12T02:20:21.661Z,17.1
2017-06-12T02:21:29.155Z,17.1
2017-06-12T02:22:36.633Z,17.1
2017-06-12T02:23:44.118Z,17.1
2017-06-12T02:24:51.906Z,17.1
2017-06-12T02:25:59.397Z,17.1
2017-06-12T02:27:06.879Z,17.2
2017-06-12T02:28:14.372Z,17.1
2017-06-12T02:29:21.861Z,17.2
2017-06-12T02:30:29.645Z,17.2
2017-06-12T02:31:37.127Z,17.2
2017-06-12T02:32:44.613Z,17.2
2017-06-12T02:33:52.093Z,17.2
2017-06-12T02:34:59.250Z,17.2
2017-06-12T02:36:06.712Z,17.2
2017-06-12T02:37:14.194Z,17.2
2017-06-12T02:38:21.684Z,17.3
2017-06-12T02:39:29.178Z,17.3
2017-06-12T02:40:36.332Z,17.3
2017-06-12T02:41:43.971Z,17.3
2017-06-12T02:42:51.468Z,17.3
2017-06-12T02:43:58.951Z,17.3
2017-06-12T02:45:06.435Z,17.3
2017-06-12T02:46:13.929Z,17.3
2017-06-12T02:47:21.232Z,17.3
2017-06-12T02:48:28.719Z,17.4
2017-06-12T02:49:36.208Z,17.4
2017-06-12T02:50:43.694Z,17.3
2017-06-12T02:51:51.180Z,17.4
2017-06-12T02:52:58.486Z,17.4
2017-06-12T02:54:05.663Z,17.3
2017-06-12T02:55:13.144Z,17.3
2017-06-12T02:56:20.295Z,17.3
2017-06-12T02:57:27.799Z,17.3
2017-06-12T02:58:35.120Z,17.3
2017-06-12T02:59:42.607Z,17.3
2017-06-12T03:00:50.091Z,17.3
2017-06-12T03:01:57.574Z,17.4
2017-06-12T03:03:05.062Z,17.4
2017-06-12T03:04:12.698Z,17.4
2017-06-12T03:05:20.185Z,17.4
2017-06-12T03:06:27.681Z,17.4
2017-06-12T03:07:34.839Z,17.4
2017-06-12T03:08:42.326Z,17.4
2017-06-12T03:09:49.962Z,17.4
2017-06-12T03:10:57.454Z,17.5
2017-06-12T03:12:04.941Z,17.5
2017-06-12T03:13:12.428Z,17.5
2017-06-12T03:14:19.914Z,17.5
2017-06-12T03:15:27.546Z,17.6
2017-06-12T03:16:35.031Z,17.6
2017-06-12T03:17:42.514Z,17.6
2017-06-12T03:18:50.001Z,17.5
2017-06-12T03:19:57.506Z,17.6
2017-06-12T03:21:05.148Z,17.6
2017-06-12T03:22:12.640Z,17.5
2017-06-12T03:23:20.121Z,17.6
2017-06-12T03:24:27.626Z,17.5
2017-06-12T03:25:35.112Z,17.5
2017-06-12T03:26:42.425Z,17.5
2017-06-12T03:27:49.917Z,17.5
2017-06-12T03:28:57.405Z,17.5
2017-06-12T03:30:04.901Z,17.4
2017-06-12T03:31:12.062Z,17.5
2017-06-12T03:32:19.697Z,17.5
2017-06-12T03:33:27.184Z,17.6
2017-06-12T03:34:34.669Z,17.6
2017-06-12T03:35:41.495Z,17.7
2017-06-12T03:36:48.982Z,17.7
2017-06-12T03:37:56.620Z,17.7
2017-06-12T03:39:03.774Z,17.7
2017-06-12T03:40:11.282Z,17.7
2017-06-12T03:41:18.776Z,17.7
2017-06-12T03:42:26.263Z,17.7
2017-06-12T03:43:33.906Z,17.7
2017-06-12T03:44:41.390Z,17.7
2017-06-12T03:45:48.880Z,17.7
2017-06-12T03:46:56.365Z,17.7
2017-06-12T03:48:03.519Z,17.7
2017-06-12T03:49:11.307Z,17.8
2017-06-12T03:50:18.804Z,17.8
2017-06-12T03:51:26.285Z,17.8
2017-06-12T03:52:33.769Z,17.8
2017-06-12T03:53:41.256Z,17.8
2017-06-12T03:54:48.571Z,17.8
2017-06-12T03:55:56.058Z,17.8
2017-06-12T03:57:03.557Z,17.9
2017-06-12T03:58:11.049Z,17.9
2017-06-12T03:59:18.535Z,17.9
2017-06-12T04:00:26.177Z,17.9
2017-06-12T04:01:33.343Z,17.9
2017-06-12T04:02:40.836Z,17.9
2017-06-12T04:03:48.320Z,18
2017-06-12T04:04:55.808Z,18
2017-06-12T04:06:03.438Z,18.1
2017-06-12T04:07:10.595Z,18.1
2017-06-12T04:08:18.080Z,18.1
2017-06-12T04:09:25.572Z,18.1
2017-06-12T04:10:33.053Z,18.1
2017-06-12T04:11:40.356Z,18
2017-06-12T04:12:47.846Z,18.1
2017-06-12T04:13:55.332Z,18.1
2017-06-12T04:15:02.491Z,18.1
2017-06-12T04:16:09.975Z,18.2
2017-06-12T04:17:17.285Z,18.2
2017-06-12T04:18:24.770Z,18.3
2017-06-12T04:19:32.255Z,18.3
2017-06-12T04:20:39.744Z,18.3
2017-06-12T04:21:47.233Z,18.3
2017-06-12T04:22:54.875Z,18.4
2017-06-12T04:24:02.365Z,18.4
2017-06-12T04:25:09.869Z,18.4
2017-06-12T04:26:17.357Z,18.5
2017-06-12T04:27:24.843Z,18.6
2017-06-12T04:28:32.477Z,18.6
2017-06-12T04:29:39.970Z,18.6
2017-06-12T04:30:47.455Z,18.6
2017-06-12T04:31:54.941Z,18.5
2017-06-12T04:33:02.088Z,18.6
2017-06-12T04:34:09.971Z,18.6
2017-06-12T04:35:17.124Z,18.7
2017-06-12T04:36:24.623Z,18.7
2017-06-12T04:37:31.787Z,18.7
2017-06-12T04:38:38.950Z,18.8
2017-06-12T04:39:46.577Z,18.7
2017-06-12T04:40:53.729Z,18.7
2017-06-12T04:42:01.451Z,18.8
2017-06-12T04:43:08.929Z,18.8
2017-06-12T04:44:16.422Z,18.7
2017-06-12T04:45:24.064Z,18.7
2017-06-12T04:46:31.547Z,18.7
2017-06-12T04:47:39.035Z,18.7
2017-06-12T04:48:46.524Z,18.7
2017-06-12T04:49:54.028Z,18.7
2017-06-12T04:51:01.669Z,18.7
2017-06-12T04:52:09.156Z,18.8
2017-06-12T04:53:16.644Z,18.9
2017-06-12T04:54:24.138Z,19
2017-06-12T04:55:31.646Z,19.1
2017-06-12T04:56:39.281Z,19.2
2017-06-12T04:57:46.770Z,19.3
2017-06-12T04:58:54.259Z,19.3
2017-06-12T05:00:01.745Z,19.4
2017-06-12T05:01:08.905Z,19.4
2017-06-12T05:02:16.556Z,19.4
2017-06-12T05:03:24.044Z,19.5
2017-06-12T05:04:31.534Z,19.5
2017-06-12T05:05:38.688Z,19.6
2017-06-12T05:06:46.176Z,19.7
2017-06-12T05:07:53.805Z,19.7
2017-06-12T05:09:01.289Z,19.7
2017-06-12T05:10:08.781Z,19.7
2017-06-12T05:11:16.264Z,19.8
2017-06-12T05:12:23.772Z,19.9
2017-06-12T05:13:31.407Z,19.9
2017-06-12T05:14:38.907Z,20
2017-06-12T05:15:46.399Z,20.2
2017-06-12T05:16:53.888Z,20.3
2017-06-12T05:18:01.610Z,20.4
2017-06-12T05:19:09.239Z,20.4
2017-06-12T05:20:16.725Z,20.5
2017-06-12T05:21:24.234Z,20.5
2017-06-12T05:22:31.719Z,20.6
2017-06-12T05:23:39.201Z,20.6
2017-06-12T05:24:46.838Z,20.7
2017-06-12T05:25:54.323Z,20.7
2017-06-12T05:27:01.816Z,20.8
2017-06-12T05:28:09.307Z,20.8
2017-06-12T05:29:16.468Z,20.9
2017-06-12T05:30:24.106Z,20.9
2017-06-12T05:31:31.594Z,20.8
2017-06-12T05:32:38.761Z,20.8
2017-06-12T05:33:46.246Z,20.9
2017-06-12T05:34:53.737Z,20.9
2017-06-12T05:36:01.379Z,20.9
2017-06-12T05:37:08.863Z,20.9
2017-06-12T05:38:16.349Z,21.1
2017-06-12T05:39:23.833Z,21
2017-06-12T05:40:31.330Z,21.1
2017-06-12T05:41:38.965Z,21.1
2017-06-12T05:42:46.449Z,21.2
2017-06-12T05:43:53.934Z,21.1
2017-06-12T05:45:01.422Z,20.9
2017-06-12T05:46:08.907Z,20.9
2017-06-12T05:47:16.546Z,21
2017-06-12T05:48:24.037Z,21.1
2017-06-12T05:49:31.524Z,21.2
2017-06-12T05:50:39.018Z,21.3
2017-06-12T05:51:46.495Z,21.4
2017-06-12T05:52:54.127Z,21.5
2017-06-12T05:54:01.617Z,21.6
2017-06-12T05:55:08.771Z,21.7
2017-06-12T05:56:16.258Z,21.6
2017-06-12T05:57:23.748Z,21.4
2017-06-12T05:58:32.740Z,21.4
2017-06-12T05:59:40.233Z,21.4
2017-06-12T06:00:47.715Z,21.4
2017-06-12T06:01:55.207Z,21.5
2017-06-12T06:03:02.694Z,21.5
2017-06-12T06:04:10.330Z,21.5
2017-06-12T06:05:17.818Z,21.5
2017-06-12T06:06:25.308Z,21.7
2017-06-12T06:07:32.463Z,21.9
2017-06-12T06:08:39.952Z,22
2017-06-12T06:09:47.261Z,22.2
2017-06-12T06:10:54.748Z,22.3
2017-06-12T06:12:02.233Z,22.4
2017-06-12T06:13:09.724Z,22.5
2017-06-12T06:14:17.213Z,22.6
2017-06-12T06:15:24.868Z,22.6
2017-06-12T06:16:32.345Z,22.7
2017-06-12T06:17:39.837Z,22.9
2017-06-12T06:18:47.323Z,22.8
2017-06-12T06:19:54.806Z,22.9
2017-06-12T06:21:02.444Z,23.1
2017-06-12T06:22:09.936Z,23.1
2017-06-12T06:23:17.083Z,23
2017-06-12T06:24:24.244Z,22.9
2017-06-12T06:25:31.732Z,22.9
2017-06-12T06:26:39.369Z,22.7
2017-06-12T06:27:46.859Z,22.6
2017-06-12T06:28:54.353Z,22.5
2017-06-12T06:30:01.840Z,22.7
2017-06-12T06:31:09.011Z,22.9
2017-06-12T06:32:18.015Z,23.2
2017-06-12T06:33:25.514Z,23.5
2017-06-12T06:34:33.011Z,23.7
2017-06-12T06:35:40.498Z,23.8
2017-06-12T06:36:47.656Z,23.6
2017-06-12T06:37:55.296Z,23.7
2017-06-12T06:39:02.791Z,23.6
2017-06-12T06:40:10.283Z,23.4
2017-06-12T06:41:17.776Z,23.5
2017-06-12T06:42:25.269Z,23.5
2017-06-12T06:43:32.907Z,23.5
2017-06-12T06:44:40.398Z,23.5
2017-06-12T06:45:47.887Z,23.5
2017-06-12T06:46:55.373Z,23.4
2017-06-12T06:48:02.538Z,23.5
2017-06-12T06:49:09.846Z,23.6
2017-06-12T06:50:17.004Z,23.5
2017-06-12T06:51:24.498Z,23.3
2017-06-12T06:52:31.987Z,23.4
2017-06-12T06:53:39.495Z,23.5
2017-06-12T06:54:47.140Z,23.8
2017-06-12T06:55:54.630Z,23.7
2017-06-12T06:57:02.120Z,23.7
2017-06-12T06:58:09.280Z,23.5
2017-06-12T06:59:16.770Z,23.5
2017-06-12T07:00:24.468Z,23.4
2017-06-12T07:01:31.953Z,23.5
2017-06-12T07:02:39.442Z,23.5
2017-06-12T07:03:46.939Z,23.6
2017-06-12T07:04:54.432Z,23.7
2017-06-12T07:06:02.126Z,23.6
2017-06-12T07:07:09.630Z,23.6
2017-06-12T07:08:17.121Z,23.4
2017-06-12T07:09:24.609Z,23.1
2017-06-12T07:10:31.769Z,22.9
2017-06-12T07:11:39.071Z,22.9
2017-06-12T07:12:46.570Z,22.7
2017-06-12T07:13:54.063Z,22.8
2017-06-12T07:15:01.556Z,22.9
2017-06-12T07:16:09.043Z,23.1
2017-06-12T07:17:16.686Z,23.3
2017-06-12T07:18:24.197Z,23.6
2017-06-12T07:19:31.684Z,23.8
2017-06-12T07:20:39.175Z,23.8
2017-06-12T07:21:46.664Z,24
2017-06-12T07:22:54.308Z,23.8
2017-06-12T07:24:01.798Z,23.9
2017-06-12T07:25:09.285Z,23.6
2017-06-12T07:26:16.451Z,23.8
2017-06-12T07:27:23.940Z,23.8
2017-06-12T07:28:31.249Z,23.9
2017-06-12T07:29:38.753Z,24
2017-06-12T07:30:46.239Z,24
2017-06-12T07:31:53.728Z,24.2
2017-06-12T07:33:01.216Z,24.3
2017-06-12T07:34:08.857Z,24.3
2017-06-12T07:35:16.016Z,24.4
2017-06-12T07:36:23.508Z,24.5
2017-06-12T07:37:31.000Z,24.6
2017-06-12T07:38:38.490Z,24.7
2017-06-12T07:39:45.806Z,24.5
2017-06-12T07:40:52.967Z,24.4
2017-06-12T07:42:00.458Z,24.2
2017-06-12T07:43:07.952Z,24.2
2017-06-12T07:44:15.437Z,24.3
2017-06-12T07:45:23.197Z,24.4
2017-06-12T07:46:30.685Z,24.5
2017-06-12T07:47:38.176Z,24.4
2017-06-12T07:48:45.334Z,24.1
2017-06-12T07:49:52.828Z,23.8
2017-06-12T07:51:00.571Z,23.5
2017-06-12T07:52:08.067Z,23.6
2017-06-12T07:53:15.568Z,23.6
2017-06-12T07:54:23.068Z,23.6
2017-06-12T07:55:30.562Z,23.5
2017-06-12T07:56:37.975Z,23.4
2017-06-12T07:57:45.139Z,23.3
2017-06-12T07:58:52.632Z,23.1
2017-06-12T08:00:00.121Z,23.1
2017-06-12T08:01:07.612Z,23.5
2017-06-12T08:02:15.354Z,23.5
2017-06-12T08:03:22.841Z,23.3
2017-06-12T08:04:30.332Z,23.5
2017-06-12T08:05:37.826Z,23.8
2017-06-12T08:06:44.984Z,23.8
2017-06-12T08:07:53.981Z,23.9
2017-06-12T08:09:01.471Z,24.1
2017-06-12T08:10:09.233Z,24.6
2017-06-12T08:11:16.774Z,24.6
2017-06-12T08:12:24.266Z,24.5
2017-06-12T08:13:32.010Z,24.3
2017-06-12T08:14:39.515Z,24.2
2017-06-12T08:15:47.005Z,24.6
2017-06-12T08:16:54.166Z,25
2017-06-12T08:18:01.659Z,24.8
2017-06-12T08:19:09.312Z,24.8
2017-06-12T08:20:16.802Z,24.5
2017-06-12T08:21:24.298Z,24.4
2017-06-12T08:22:31.475Z,24.6
2017-06-12T08:23:38.970Z,24.6
2017-06-12T08:24:46.625Z,24.7
2017-06-12T08:25:54.122Z,24.9
2017-06-12T08:27:01.283Z,25.1
2017-06-12T08:28:08.441Z,25
2017-06-12T08:29:15.932Z,24.9
2017-06-12T08:30:23.581Z,24.6
2017-06-12T08:31:31.070Z,24.8
2017-06-12T08:32:38.236Z,25.2
2017-06-12T08:33:45.746Z,25
2017-06-12T08:34:52.912Z,25
2017-06-12T08:36:00.553Z,24.9
2017-06-12T08:37:08.042Z,25
2017-06-12T08:38:15.534Z,25.3
2017-06-12T08:39:23.039Z,25.6
2017-06-12T08:40:30.543Z,25.8
2017-06-12T08:41:38.191Z,25.4
2017-06-12T08:42:45.680Z,25.4
2017-06-12T08:43:53.175Z,25.4
2017-06-12T08:45:00.667Z,25.6
2017-06-12T08:46:08.163Z,25.5
2017-06-12T08:47:15.479Z,24.9
2017-06-12T08:48:22.984Z,24.3
2017-06-12T08:49:30.477Z,24.3
2017-06-12T08:50:37.636Z,24.3
2017-06-12T08:51:45.130Z,24.3
2017-06-12T08:52:52.774Z,24.3
2017-06-12T08:54:00.277Z,24.1
2017-06-12T08:55:07.768Z,23.9
2017-06-12T08:56:15.262Z,23.8
2017-06-12T08:57:22.761Z,23.7
2017-06-12T08:58:30.412Z,23.7
2017-06-12T08:59:37.583Z,23.7
2017-06-12T09:00:45.073Z,23.8
2017-06-12T09:01:52.560Z,23.9
2017-06-12T09:03:00.054Z,23.9
2017-06-12T09:04:07.363Z,23.9
2017-06-12T09:05:14.861Z,24
2017-06-12T09:06:22.349Z,24.2
2017-06-12T09:07:29.841Z,24.3
2017-06-12T09:08:37.339Z,24.4
2017-06-12T09:09:44.980Z,24.3
2017-06-12T09:10:52.468Z,24.3
2017-06-12T09:11:59.982Z,24.7
2017-06-12T09:13:07.477Z,25
2017-06-12T09:14:14.972Z,24.9
2017-06-12T09:15:22.613Z,24.7
2017-06-12T09:16:30.105Z,24.7
2017-06-12T09:17:37.597Z,25.3
2017-06-12T09:18:45.091Z,25.8
2017-06-12T09:19:52.581Z,26.4
2017-06-12T09:21:00.219Z,26.2
2017-06-12T09:22:07.716Z,25.9
2017-06-12T09:23:15.208Z,25.6
2017-06-12T09:24:22.693Z,25.7
2017-06-12T09:25:30.181Z,25.5
2017-06-12T09:26:37.822Z,25.5
2017-06-12T09:27:45.332Z,25.4
2017-06-12T09:28:52.819Z,25.2
2017-06-12T09:30:00.314Z,25.3
2017-06-12T09:31:07.474Z,25.5
2017-06-12T09:32:15.115Z,25.6
2017-06-12T09:33:22.606Z,25.4
2017-06-12T09:34:30.104Z,25.2
2017-06-12T09:35:37.601Z,25.1
2017-06-12T09:36:45.099Z,25.3
2017-06-12T09:37:52.743Z,25.5
2017-06-12T09:39:00.231Z,25.9
2017-06-12T09:40:07.722Z,26
2017-06-12T09:41:14.890Z,25.9
2017-06-12T09:42:22.058Z,25.5
2017-06-12T09:43:29.695Z,25.3
2017-06-12T09:44:37.190Z,25.3
2017-06-12T09:45:44.681Z,25.3
2017-06-12T09:46:52.166Z,25.3
2017-06-12T09:47:59.656Z,25.2
2017-06-12T09:49:07.296Z,25.3
2017-06-12T09:50:14.819Z,25.5
2017-06-12T09:51:22.315Z,25.6
2017-06-12T09:52:29.809Z,26.1
2017-06-12T09:53:36.964Z,26.5
2017-06-12T09:54:44.431Z,26.9
2017-06-12T09:55:51.924Z,26.7
2017-06-12T09:56:59.415Z,26.7
2017-06-12T09:58:06.580Z,26.9
2017-06-12T09:59:13.745Z,27.2
2017-06-12T10:00:21.539Z,27.3
2017-06-12T10:01:29.045Z,27
2017-06-12T10:02:36.204Z,26.9
2017-06-12T10:03:43.370Z,27
2017-06-12T10:04:50.866Z,26.9
2017-06-12T10:05:58.347Z,27.3
2017-06-12T10:07:05.506Z,27.4
2017-06-12T10:08:13.003Z,27.1
2017-06-12T10:09:20.172Z,26.5
2017-06-12T10:10:27.333Z,26
2017-06-12T10:11:35.140Z,26
2017-06-12T10:12:42.640Z,26.2
2017-06-12T10:13:50.132Z,26.3
2017-06-12T10:14:57.299Z,26.2
2017-06-12T10:16:04.791Z,26.4
2017-06-12T10:17:12.247Z,26.4
2017-06-12T10:18:19.741Z,26.5
2017-06-12T10:19:27.238Z,26.9
2017-06-12T10:20:34.731Z,26.8
2017-06-12T10:21:42.224Z,26.6
2017-06-12T10:22:50.025Z,26.1
2017-06-12T10:23:57.523Z,26.1
2017-06-12T10:25:04.685Z,26.2
2017-06-12T10:26:12.181Z,26.3
2017-06-12T10:27:19.678Z,26.9
2017-06-12T10:28:27.170Z,27.2
2017-06-12T10:29:34.662Z,27.2
2017-06-12T10:30:42.165Z,27.5
2017-06-12T10:31:49.331Z,27.6
2017-06-12T10:32:56.824Z,27.5
2017-06-12T10:34:04.640Z,27.1
2017-06-12T10:35:11.802Z,26.8
2017-06-12T10:36:19.316Z,26.7
2017-06-12T10:37:26.820Z,27
2017-06-12T10:38:34.317Z,27
2017-06-12T10:39:42.108Z,27.1
2017-06-12T10:40:49.601Z,27.3
2017-06-12T10:41:57.092Z,27.2
2017-06-12T10:43:04.257Z,27.5
2017-06-12T10:44:11.421Z,27.2
2017-06-12T10:45:18.909Z,27.4
2017-06-12T10:46:26.404Z,27.6
2017-06-12T10:47:33.903Z,27.7
2017-06-12T10:48:41.399Z,27.6
2017-06-12T10:49:48.890Z,27.2
2017-06-12T10:50:56.690Z,27.1
2017-06-12T10:52:04.184Z,27.1
2017-06-12T10:53:11.695Z,26.9
2017-06-12T10:54:19.187Z,26.7
2017-06-12T10:55:26.678Z,26.4
2017-06-12T10:56:34.320Z,26.5
2017-06-12T10:57:41.817Z,26.6
2017-06-12T10:58:49.312Z,26.8
2017-06-12T10:59:56.808Z,27.1
2017-06-12T11:01:04.302Z,27.6
2017-06-12T11:02:11.954Z,27.7
2017-06-12T11:03:19.447Z,27.7
2017-06-12T11:04:26.962Z,27.5
2017-06-12T11:05:34.458Z,26.9
2017-06-12T11:06:41.643Z,26.9
2017-06-12T11:07:49.284Z,26.9
2017-06-12T11:08:56.773Z,27.3
2017-06-12T11:10:03.938Z,27.5
2017-06-12T11:11:11.437Z,27.2
2017-06-12T11:12:18.934Z,27
2017-06-12T11:13:26.427Z,27.4
2017-06-12T11:14:33.589Z,27.6
2017-06-12T11:15:41.058Z,27.6
2017-06-12T11:16:48.546Z,27.1
2017-06-12T11:17:56.050Z,27
2017-06-12T11:19:03.571Z,26.7
2017-06-12T11:20:10.733Z,26.7
2017-06-12T11:21:18.524Z,27
2017-06-12T11:22:26.039Z,27.2
2017-06-12T11:23:33.523Z,27.2
2017-06-12T11:24:40.685Z,27.5
2017-06-12T11:25:48.179Z,27.5
2017-06-12T11:26:55.978Z,27.6
2017-06-12T11:28:03.477Z,27.5
2017-06-12T11:29:10.974Z,27.5
2017-06-12T11:30:18.460Z,27.5
2017-06-12T11:31:25.958Z,27.3
2017-06-12T11:32:33.761Z,27.4
2017-06-12T11:33:41.273Z,27.2
2017-06-12T11:34:48.760Z,27.4
2017-06-12T11:35:56.252Z,27
2017-06-12T11:37:03.419Z,27.3
2017-06-12T11:38:11.064Z,27.2
2017-06-12T11:39:18.555Z,27.1
2017-06-12T11:40:26.046Z,27.4
2017-06-12T11:41:33.539Z,27.2
2017-06-12T11:42:41.058Z,27.2
2017-06-12T11:43:48.696Z,27.4
2017-06-12T11:44:56.192Z,27.5
2017-06-12T11:46:03.691Z,27.4
2017-06-12T11:47:11.188Z,27.4
2017-06-12T11:48:18.675Z,27.5
2017-06-12T11:49:25.992Z,27.5
2017-06-12T11:50:33.154Z,27.5
2017-06-12T11:51:40.653Z,27.8
2017-06-12T11:52:48.162Z,28
2017-06-12T11:53:55.663Z,27.9
2017-06-12T11:55:02.983Z,27.9
2017-06-12T11:56:09.825Z,27.9
2017-06-12T11:57:17.329Z,27.6
2017-06-12T11:58:24.821Z,27.3
2017-06-12T11:59:31.982Z,27.2
2017-06-12T12:00:39.641Z,27.4
2017-06-12T12:01:47.152Z,27.5
2017-06-12T12:02:54.646Z,27.6
2017-06-12T12:04:02.139Z,27.6
2017-06-12T12:05:09.661Z,27.7
2017-06-12T12:06:17.352Z,27.8
2017-06-12T12:07:24.849Z,27.7
2017-06-12T12:08:32.353Z,27.9
2017-06-12T12:09:39.848Z,27.9
2017-06-12T12:10:47.341Z,27.8
2017-06-12T12:11:54.988Z,28
2017-06-12T12:13:02.496Z,27.9
2017-06-12T12:14:09.672Z,28.2
2017-06-12T12:15:17.171Z,28.3
2017-06-12T12:20:19.230Z,28.1
2017-06-12T12:21:26.718Z,28.1
2017-06-12T12:22:34.511Z,28
2017-06-12T12:23:42.014Z,27.9
2017-06-12T12:24:49.181Z,27.6
2017-06-12T12:25:56.678Z,27.7
2017-06-12T12:27:04.184Z,28
2017-06-12T12:28:11.983Z,28.3
2017-06-12T12:29:19.484Z,28.4
2017-06-12T12:30:26.981Z,28.2
2017-06-12T12:31:34.470Z,27.9
2017-06-12T12:32:41.973Z,28.1
2017-06-12T12:33:49.769Z,28.2
2017-06-12T12:34:57.272Z,28.3
2017-06-12T12:36:04.778Z,28.4
2017-06-12T12:37:12.283Z,28.7
2017-06-12T12:38:19.777Z,29.1
2017-06-12T12:39:27.421Z,29.1
2017-06-12T12:40:34.918Z,28.4
2017-06-12T12:41:42.409Z,28
2017-06-12T12:42:49.579Z,28
2017-06-12T12:43:57.075Z,28.2
2017-06-12T12:45:04.881Z,28.1
2017-06-12T12:46:12.376Z,28
2017-06-12T12:47:19.871Z,27.9
2017-06-12T12:48:27.381Z,28.1
2017-06-12T12:49:34.881Z,28.2
2017-06-12T12:50:42.356Z,28.4
2017-06-12T12:51:49.848Z,28.3
2017-06-12T12:52:57.008Z,28.3
2017-06-12T12:54:04.506Z,28.3
2017-06-12T12:55:11.993Z,28.6
2017-06-12T12:56:19.894Z,28.6
2017-06-12T12:57:27.399Z,28.6
2017-06-12T12:58:34.893Z,28.9
2017-06-12T12:59:42.072Z,28.8
2017-06-12T13:00:49.230Z,28.6
2017-06-12T13:01:56.885Z,28.6
2017-06-12T13:03:04.389Z,28.5
2017-06-12T13:04:11.888Z,28.3
2017-06-12T13:05:19.377Z,28.1
2017-06-12T13:06:26.878Z,28.2
2017-06-12T13:07:34.050Z,28.2
2017-06-12T13:08:41.230Z,28.6
2017-06-12T13:09:48.701Z,28.6
2017-06-12T13:10:56.190Z,28.5
2017-06-12T13:12:03.687Z,28.6
2017-06-12T13:13:11.187Z,28.2
2017-06-12T13:14:18.693Z,28.7
2017-06-12T13:15:26.334Z,29
2017-06-12T13:16:33.826Z,29.2
2017-06-12T13:17:41.317Z,29
2017-06-12T13:18:48.811Z,28.9
2017-06-12T13:19:56.303Z,29.1
2017-06-12T13:21:03.949Z,29
2017-06-12T13:22:11.439Z,29
2017-06-12T13:23:18.933Z,28.8
2017-06-12T13:24:26.428Z,28.8
2017-06-12T13:25:33.597Z,28.7
2017-06-12T13:26:41.090Z,28.8
2017-06-12T13:27:48.582Z,29.1
2017-06-12T13:28:56.376Z,29.2
2017-06-12T13:30:03.883Z,29.6
2017-06-12T13:31:11.387Z,29.8
2017-06-12T13:32:18.549Z,29.2
2017-06-12T13:33:25.715Z,29.2
2017-06-12T13:34:33.357Z,29.3
2017-06-12T13:35:40.854Z,29
2017-06-12T13:36:48.348Z,29
2017-06-12T13:37:56.072Z,29
2017-06-12T13:39:03.567Z,29.1
2017-06-12T13:40:10.888Z,29.4
2017-06-12T13:41:18.378Z,29.6
2017-06-12T13:42:25.545Z,29.1
2017-06-12T13:43:32.714Z,29.3
2017-06-12T13:44:39.543Z,29.2
2017-06-12T13:45:47.277Z,29
2017-06-12T13:46:54.758Z,29.3
2017-06-12T13:48:02.284Z,29.9
2017-06-12T13:49:09.931Z,30
2017-06-12T13:50:17.429Z,29.4
2017-06-12T13:51:24.594Z,29.1
2017-06-12T13:52:32.089Z,28.8
2017-06-12T13:53:39.583Z,29
2017-06-12T13:54:47.234Z,29.3
2017-06-12T13:55:54.728Z,29.7
2017-06-12T13:57:02.224Z,29.6
2017-06-12T13:58:09.714Z,29.5
2017-06-12T13:59:17.212Z,29.4
2017-06-12T14:00:24.858Z,29.3
2017-06-12T14:01:32.351Z,29.3
2017-06-12T14:02:39.844Z,29.3
2017-06-12T14:03:47.005Z,29.6
2017-06-12T14:04:54.498Z,29.2
2017-06-12T14:06:02.151Z,29.3
2017-06-12T14:07:09.317Z,29.3
2017-06-12T14:08:16.811Z,29.5
2017-06-12T14:09:23.967Z,29.6
2017-06-12T14:10:31.459Z,30
2017-06-12T14:11:39.107Z,30.2
2017-06-12T14:12:46.596Z,29.3
2017-06-12T14:13:53.778Z,28.9
2017-06-12T14:15:01.275Z,28.6
2017-06-12T14:16:08.785Z,28.4
2017-06-12T14:17:16.429Z,28.3
2017-06-12T14:18:23.593Z,28.5
2017-06-12T14:19:31.082Z,28.8
2017-06-12T14:20:38.579Z,28.9
2017-06-12T14:21:46.075Z,29
2017-06-12T14:22:53.418Z,29.2
2017-06-12T14:24:00.918Z,29.6
2017-06-12T14:25:08.414Z,29.4
2017-06-12T14:26:15.913Z,29.3
2017-06-12T14:27:23.405Z,29
2017-06-12T14:28:30.897Z,28.6
2017-06-12T14:29:38.393Z,28.2
2017-06-12T14:30:45.901Z,28.4
2017-06-12T14:31:53.393Z,28.5
2017-06-12T14:33:01.182Z,28.3
2017-06-12T14:34:08.673Z,28.2
2017-06-12T14:35:16.169Z,27.6
2017-06-12T14:36:23.660Z,27.8
2017-06-12T14:37:31.160Z,27.9
2017-06-12T14:38:38.957Z,28.2
2017-06-12T14:39:46.453Z,28.4
2017-06-12T14:40:53.618Z,28.9
2017-06-12T14:42:01.115Z,28.7
2017-06-12T14:43:08.605Z,28.8
2017-06-12T14:44:16.397Z,28.8
2017-06-12T14:45:23.895Z,28.6
2017-06-12T14:46:31.388Z,28.9
2017-06-12T14:47:38.879Z,29
2017-06-12T14:48:46.370Z,28.9
2017-06-12T14:49:53.867Z,28.9
2017-06-12T14:51:01.361Z,28.7
2017-06-12T14:52:08.855Z,28.8
2017-06-12T14:53:16.348Z,28.6
2017-06-12T14:54:23.851Z,28.4
2017-06-12T14:55:31.648Z,28.4
2017-06-12T14:56:39.142Z,27.9
2017-06-12T14:57:46.638Z,27.9
2017-06-12T14:58:54.127Z,27.6
2017-06-12T15:00:00.966Z,27.6
2017-06-12T15:01:08.766Z,27.8
2017-06-12T15:02:16.258Z,27.8
2017-06-12T15:03:23.758Z,27.7
2017-06-12T15:04:31.277Z,28
2017-06-12T15:05:38.774Z,28
2017-06-12T15:06:46.572Z,28.3